createdAt,value
2018-11-20T00:05:25.250Z,44
2018-11-20T00:15:28.996Z,44
2018-11-20T00:25:32.578Z,44
2018-11-20T00:35:36.197Z,44
2018-11-20T00:45:39.814Z,42
2018-11-20T00:55:43.391Z,42
2018-11-20T01:05:46.976Z,43
2018-11-20T01:15:51.533Z,44
2018-11-20T01:25:55.186Z,50
2018-11-20T01:35:58.854Z,43
2018-11-20T01:46:02.446Z,43
2018-11-20T01:56:06.000Z,43
2018-11-20T02:06:09.544Z,42
2018-11-20T02:16:13.208Z,43
2018-11-20T02:26:16.778Z,42
2018-11-20T02:36:20.332Z,42
2018-11-20T02:46:24.032Z,42
2018-11-20T02:56:27.660Z,42
2018-11-20T03:06:31.293Z,42
2018-11-20T03:16:34.892Z,43
2018-11-20T03:26:38.529Z,43
2018-11-20T03:36:42.118Z,42
2018-11-20T03:46:45.715Z,42
2018-11-20T03:56:49.324Z,42
2018-11-20T04:06:52.964Z,42
2018-11-20T04:16:56.571Z,42
2018-11-20T04:27:00.174Z,42
2018-11-20T04:37:03.832Z,42
2018-11-20T04:47:07.408Z,41
2018-11-20T04:57:11.011Z,41
2018-11-20T05:07:14.628Z,41
2018-11-20T05:17:18.283Z,41
2018-11-20T05:27:21.889Z,42
2018-11-20T05:37:25.673Z,40
2018-11-20T05:47:29.305Z,41
2018-11-20T05:57:32.861Z,41
2018-11-20T06:07:36.686Z,42
2018-11-20T06:17:40.261Z,42
2018-11-20T06:27:43.798Z,35
2018-11-20T06:37:47.374Z,40
2018-11-20T06:47:50.957Z,40
2018-11-20T06:57:54.562Z,40
2018-11-20T07:07:58.939Z,40
2018-11-20T07:18:02.815Z,40
2018-11-20T07:28:06.482Z,42
2018-11-20T07:38:10.249Z,42
2018-11-20T07:48:13.839Z,43
2018-11-20T07:58:17.398Z,44
2018-11-20T08:08:21.301Z,44
2018-11-20T08:18:24.886Z,43
2018-11-20T08:28:28.462Z,43
2018-11-20T08:38:32.144Z,46
2018-11-20T08:48:35.806Z,57
2018-11-20T08:58:39.457Z,51
2018-11-20T09:08:43.028Z,54
2018-11-20T09:18:46.728Z,70
2018-11-20T09:28:50.423Z,62
2018-11-20T09:38:54.059Z,57
2018-11-20T09:48:57.654Z,55
2018-11-20T09:59:01.408Z,55
2018-11-20T10:09:04.996Z,55
2018-11-20T10:19:08.868Z,56
2018-11-20T10:29:12.525Z,57
2018-11-20T10:39:16.099Z,56
2018-11-20T10:49:19.771Z,58
2018-11-20T13:20:31.669Z,57
2018-11-20T13:20:55.923Z,54
2018-11-20T13:31:22.727Z,57
2018-11-20T13:41:26.355Z,56
2018-11-20T13:51:31.597Z,57
2018-11-20T14:01:35.438Z,56
2018-11-20T14:11:39.057Z,57
2018-11-20T14:21:42.654Z,63
2018-11-20T14:31:46.410Z,60
2018-11-20T14:41:50.043Z,59
2018-11-20T14:51:53.586Z,56
2018-11-20T15:01:57.115Z,55
2018-11-20T15:12:00.762Z,54
2018-11-20T15:22:04.308Z,53
2018-11-20T15:32:08.267Z,53
2018-11-20T15:42:12.046Z,52
2018-11-20T15:52:15.663Z,52
2018-11-20T16:02:19.320Z,51
2018-11-20T16:12:22.871Z,51
2018-11-20T16:22:26.424Z,50
2018-11-20T16:32:29.995Z,48
2018-11-20T16:42:33.600Z,52
2018-11-20T16:52:37.207Z,53
2018-11-20T17:02:40.879Z,53
2018-11-20T17:12:44.430Z,54
2018-11-20T17:22:47.996Z,62
2018-11-20T17:32:51.638Z,54
2018-11-20T17:42:55.202Z,54
2018-11-20T17:52:58.772Z,55
2018-11-20T18:03:02.489Z,55
2018-11-20T18:13:06.128Z,55
2018-11-20T18:23:09.773Z,54
2018-11-20T18:33:13.604Z,57
2018-11-20T18:43:17.244Z,54
2018-11-20T18:53:20.890Z,53
2018-11-20T19:03:24.585Z,52
2018-11-20T19:13:28.190Z,51
2018-11-20T19:23:31.849Z,51
2018-11-20T19:33:35.449Z,25
2018-11-20T19:43:39.100Z,50
2018-11-20T19:53:42.684Z,49
2018-11-20T20:03:46.337Z,48
2018-11-20T20:13:49.910Z,48
2018-11-20T20:23:53.601Z,48
2018-11-20T20:33:57.137Z,48
2018-11-20T20:44:00.668Z,46
2018-11-20T20:54:04.236Z,47
2018-11-20T21:04:07.837Z,46
2018-11-20T21:14:11.547Z,47
2018-11-20T21:24:15.297Z,47
2018-11-20T21:34:18.873Z,47
2018-11-20T21:44:22.495Z,46
2018-11-20T21:54:26.088Z,46
2018-11-20T22:04:29.711Z,46
2018-11-20T22:14:33.373Z,47
2018-11-20T22:24:37.036Z,43
2018-11-20T22:34:40.603Z,46
2018-11-20T22:44:44.261Z,46
2018-11-20T22:54:47.813Z,46
2018-11-20T23:04:51.334Z,46
2018-11-20T23:14:54.964Z,44
2018-11-20T23:24:58.535Z,45
2018-11-20T23:35:02.256Z,46
2018-11-20T23:45:05.860Z,45
2018-11-20T23:55:09.489Z,45
